createdAt,value
2022-10-11T00:02:18.229Z,5.87
2022-10-11T00:04:56.386Z,5.88
2022-10-11T00:07:34.751Z,5.87
2022-10-11T00:10:13.604Z,5.86
2022-10-11T00:12:53.090Z,5.84
2022-10-11T00:15:31.434Z,5.86
2022-10-11T00:18:11.630Z,5.83
2022-10-11T00:20:50.076Z,5.83
2022-10-11T00:23:29.608Z,5.77
2022-10-11T00:26:09.617Z,5.72
2022-10-11T00:28:52.177Z,5.76
2022-10-11T00:31:35.488Z,5.79
2022-10-11T00:34:15.817Z,5.79
2022-10-11T00:36:54.186Z,5.74
2022-10-11T00:39:32.617Z,5.69
2022-10-11T00:42:13.324Z,5.65
2022-10-11T00:44:52.437Z,5.62
2022-10-11T00:47:30.841Z,5.59
2022-10-11T00:50:11.068Z,5.58
2022-10-11T00:52:53.534Z,5.55
2022-10-11T00:55:37.552Z,5.54
2022-10-11T00:58:17.706Z,5.57
2022-10-11T01:00:57.190Z,5.54
2022-10-11T01:04:01.881Z,5.52
2022-10-11T01:06:41.712Z,5.49
2022-10-11T01:09:21.406Z,5.48
2022-10-11T01:12:03.059Z,5.44
2022-10-11T01:15:05.616Z,5.43
2022-10-11T01:18:03.711Z,5.44
2022-10-11T01:20:46.278Z,5.40
2022-10-11T01:23:43.899Z,5.38
2022-10-11T01:26:32.569Z,5.34
2022-10-11T01:29:13.907Z,5.30
2022-10-11T01:31:54.259Z,5.27
2022-10-11T01:34:52.687Z,5.27
2022-10-11T01:37:39.280Z,5.26
2022-10-11T01:40:43.990Z,5.25
2022-10-11T01:43:24.140Z,5.22
2022-10-11T01:46:04.321Z,5.18
2022-10-11T01:48:49.247Z,5.20
2022-10-11T01:51:30.509Z,5.19
2022-10-11T01:54:35.226Z,5.20
2022-10-11T01:57:46.871Z,5.18
2022-10-11T02:00:29.433Z,5.18
2022-10-11T02:03:37.887Z,5.19
2022-10-11T02:06:23.306Z,5.22
2022-10-11T02:09:14.672Z,5.20
2022-10-11T02:11:56.984Z,5.19
2022-10-11T02:14:39.562Z,5.13
2022-10-11T02:17:20.274Z,5.09
2022-10-11T02:20:04.028Z,5.05
2022-10-11T02:22:45.706Z,5.01
2022-10-11T02:25:24.338Z,4.99
2022-10-11T02:28:04.077Z,4.94
2022-10-11T02:30:45.184Z,4.90
2022-10-11T02:33:27.147Z,4.88
2022-10-11T02:36:13.499Z,4.85
2022-10-11T02:38:54.978Z,4.83
2022-10-11T02:41:36.716Z,4.79
2022-10-11T02:44:24.045Z,4.77
2022-10-11T02:47:04.118Z,4.75
2022-10-11T02:49:42.854Z,4.76
2022-10-11T02:52:22.762Z,4.72
2022-10-11T02:55:01.081Z,4.71
2022-10-11T02:57:39.476Z,4.70
2022-10-11T03:00:17.785Z,4.68
2022-10-11T03:02:53.942Z,4.69
2022-10-11T03:05:37.301Z,4.68
2022-10-11T03:08:16.605Z,4.68
2022-10-11T03:10:53.850Z,4.64
2022-10-11T03:13:30.505Z,4.64
2022-10-11T03:16:09.727Z,4.58
2022-10-11T03:18:49.323Z,4.56
2022-10-11T03:21:27.682Z,4.56
2022-10-11T03:24:06.158Z,4.56
2022-10-11T03:26:45.913Z,4.55
2022-10-11T03:29:24.300Z,4.54
2022-10-11T03:32:03.146Z,4.52
2022-10-11T03:34:42.626Z,4.53
2022-10-11T03:37:20.970Z,4.50
2022-10-11T03:40:01.411Z,4.47
2022-10-11T03:42:41.281Z,4.47
2022-10-11T03:45:22.632Z,4.46
2022-10-11T03:48:02.877Z,4.44
2022-10-11T03:50:42.392Z,4.43
2022-10-11T03:53:20.660Z,4.45
2022-10-11T03:55:59.032Z,4.47
2022-10-11T03:58:37.314Z,4.50
2022-10-11T04:01:15.716Z,4.51
2022-10-11T04:04:18.171Z,4.52
2022-10-11T04:06:56.362Z,4.54
2022-10-11T04:09:32.650Z,4.55
2022-10-11T04:12:09.427Z,4.55
2022-10-11T04:14:48.207Z,4.53
2022-10-11T04:17:26.773Z,4.54
2022-10-11T04:20:07.339Z,4.52
2022-10-11T04:22:46.501Z,4.55
2022-10-11T04:25:24.862Z,4.59
2022-10-11T04:28:03.416Z,4.64
2022-10-11T04:30:41.482Z,4.67
2022-10-11T04:33:19.878Z,4.71
2022-10-11T04:35:58.184Z,4.72
2022-10-11T04:38:36.572Z,4.76
2022-10-11T04:41:16.346Z,4.82
2022-10-11T04:43:54.891Z,4.89
2022-10-11T04:46:33.178Z,4.99
2022-10-11T04:49:11.697Z,5.03
2022-10-11T04:51:49.907Z,5.10
2022-10-11T04:54:28.282Z,5.13
2022-10-11T04:57:06.597Z,5.17
2022-10-11T04:59:49.877Z,4.82
2022-10-11T05:02:29.705Z,6.33
2022-10-11T05:05:08.256Z,6.58
2022-10-11T05:07:46.325Z,7.27
2022-10-11T05:10:24.738Z,8.29
2022-10-11T05:13:03.072Z,9.02
2022-10-11T05:15:41.438Z,9.30
2022-10-11T05:18:19.801Z,8.79
2022-10-11T05:21:06.077Z,8.31
2022-10-11T05:23:45.177Z,7.95
2022-10-11T05:26:22.334Z,7.76
2022-10-11T05:29:01.298Z,7.79
2022-10-11T05:31:39.505Z,8.16
2022-10-11T05:34:17.821Z,8.90
2022-10-11T05:36:56.954Z,8.92
2022-10-11T05:39:36.179Z,9.56
2022-10-11T05:42:14.653Z,12.06
2022-10-11T05:44:52.807Z,14.79
2022-10-11T05:47:31.228Z,17.01
2022-10-11T05:50:09.782Z,18.74
2022-10-11T05:52:47.854Z,18.59
2022-10-11T05:55:27.902Z,18.85
2022-10-11T05:58:06.758Z,19.92
2022-10-11T06:00:46.105Z,20.15
2022-10-11T06:03:24.687Z,21.63
2022-10-11T06:06:05.370Z,22.67
2022-10-11T06:08:45.005Z,23.28
2022-10-11T06:11:26.249Z,24.19
2022-10-11T06:14:45.817Z,24.11
2022-10-11T06:17:41.357Z,24.77
2022-10-11T06:20:38.070Z,24.55
2022-10-11T06:23:30.702Z,24.09
2022-10-11T06:26:26.716Z,24.54
2022-10-11T06:29:22.750Z,24.71
2022-10-11T06:32:27.406Z,25.00
2022-10-11T06:35:24.285Z,25.90
2022-10-11T06:38:16.680Z,26.52
2022-10-11T06:41:10.480Z,26.54
2022-10-11T06:44:08.732Z,25.06
2022-10-11T06:47:05.421Z,24.40
2022-10-11T06:50:00.729Z,24.70
2022-10-11T06:52:56.804Z,24.48
2022-10-11T06:56:09.015Z,24.45
2022-10-11T06:59:03.724Z,25.26
2022-10-11T07:01:56.915Z,26.04
2022-10-11T07:04:49.666Z,25.96
2022-10-11T07:07:26.647Z,25.15
2022-10-11T07:10:35.570Z,26.09
2022-10-11T07:13:28.074Z,26.88
2022-10-11T07:16:36.714Z,27.00
2022-10-11T07:19:34.547Z,27.15
2022-10-11T07:22:27.598Z,26.65
2022-10-11T07:25:23.483Z,26.27
2022-10-11T07:28:15.816Z,24.60
2022-10-11T07:31:14.035Z,24.13
2022-10-11T07:34:07.587Z,23.78
2022-10-11T07:37:09.082Z,23.62
2022-10-11T07:40:01.056Z,23.65
2022-10-11T07:42:53.955Z,22.31
2022-10-11T07:46:04.597Z,19.68
2022-10-11T07:49:00.647Z,17.70
2022-10-11T07:51:57.815Z,16.74
2022-10-11T07:54:53.876Z,16.10
2022-10-11T07:57:49.106Z,15.48
2022-10-11T08:00:42.478Z,15.06
2022-10-11T08:03:19.373Z,15.13
2022-10-11T08:06:13.534Z,15.12
2022-10-11T08:09:10.485Z,15.37
2022-10-11T08:12:03.773Z,14.85
2022-10-11T08:15:02.286Z,14.39
2022-10-11T08:18:07.266Z,14.28
2022-10-11T08:21:18.985Z,13.97
2022-10-11T08:24:14.444Z,14.05
2022-10-11T08:27:06.162Z,13.81
2022-10-11T08:30:01.324Z,13.40
2022-10-11T08:32:54.491Z,12.91
2022-10-11T08:35:57.444Z,12.78
2022-10-11T08:39:07.894Z,13.16
2022-10-11T08:42:28.704Z,13.65
2022-10-11T08:45:31.106Z,13.47
2022-10-11T08:48:37.425Z,13.22
2022-10-11T08:51:35.581Z,13.18
2022-10-11T08:54:31.551Z,12.91
2022-10-11T08:57:32.218Z,12.48
2022-10-11T09:00:28.607Z,12.30
2022-10-11T09:03:19.653Z,12.08
2022-10-11T09:06:16.148Z,11.96
2022-10-11T09:08:55.623Z,11.87
2022-10-11T09:11:34.523Z,11.65
2022-10-11T09:14:31.545Z,11.37
2022-10-11T09:17:16.780Z,11.13
2022-10-11T09:19:49.767Z,11.28
2022-10-11T09:22:30.794Z,11.31
2022-10-11T09:24:58.129Z,11.28
2022-10-11T09:28:01.899Z,11.18
2022-10-11T09:30:30.149Z,11.25
2022-10-11T09:32:59.891Z,11.17
2022-10-11T09:35:28.519Z,11.26
2022-10-11T09:37:55.493Z,11.41
2022-10-11T09:40:28.693Z,11.30
2022-10-11T09:42:55.766Z,11.36
2022-10-11T09:45:22.926Z,11.49
2022-10-11T09:47:52.648Z,11.54
2022-10-11T09:50:26.025Z,11.56
2022-10-11T09:52:55.093Z,11.60
2022-10-11T09:55:33.308Z,11.69
2022-10-11T09:58:00.506Z,11.63
2022-10-11T10:00:28.613Z,11.53
2022-10-11T10:02:59.735Z,11.55
2022-10-11T10:05:31.134Z,11.49
2022-10-11T10:08:04.544Z,11.52
2022-10-11T10:10:34.605Z,11.61
2022-10-11T10:13:03.747Z,11.64
2022-10-11T10:15:35.182Z,11.59
2022-10-11T10:18:02.886Z,11.52
2022-10-11T10:20:34.366Z,11.45
2022-10-11T10:23:21.418Z,11.09
2022-10-11T10:25:52.307Z,11.23
2022-10-11T10:28:21.906Z,11.24
2022-10-11T10:30:58.983Z,11.32
2022-10-11T10:33:27.369Z,11.43
2022-10-11T10:35:56.893Z,11.52
2022-10-11T10:38:27.345Z,11.60
2022-10-11T10:40:59.002Z,11.67
2022-10-11T10:43:27.901Z,11.71
2022-10-11T10:46:00.857Z,11.62
2022-10-11T10:48:53.788Z,11.57
2022-10-11T10:51:26.389Z,11.50
2022-10-11T10:54:03.148Z,11.50
2022-10-11T10:56:36.994Z,11.51
2022-10-11T10:59:04.143Z,11.57
2022-10-11T11:01:32.777Z,11.59
2022-10-11T11:03:59.894Z,11.62
2022-10-11T11:06:42.224Z,11.64
2022-10-11T11:09:28.136Z,11.63
2022-10-11T11:12:01.947Z,11.52
2022-10-11T11:14:34.949Z,11.44
2022-10-11T11:17:07.995Z,11.51
2022-10-11T11:19:53.810Z,11.55
2022-10-11T11:22:23.882Z,11.60
2022-10-11T11:25:12.849Z,11.57
2022-10-11T11:27:43.978Z,11.48
2022-10-11T11:30:13.964Z,11.50
2022-10-11T11:32:59.703Z,11.48
2022-10-11T11:35:33.467Z,11.46
2022-10-11T11:38:28.570Z,11.39
2022-10-11T11:41:02.754Z,11.40
2022-10-11T11:43:38.455Z,11.44
2022-10-11T11:46:10.488Z,11.39
2022-10-11T11:48:37.735Z,11.30
2022-10-11T11:51:26.518Z,11.27
2022-10-11T11:54:13.067Z,11.15
2022-10-11T11:56:52.205Z,11.17
2022-10-11T11:59:28.204Z,11.19
2022-10-11T12:02:04.102Z,11.18
2022-10-11T12:04:34.473Z,11.16
2022-10-11T12:07:17.806Z,11.12
2022-10-11T12:09:50.786Z,11.15
2022-10-11T12:12:28.026Z,11.21
2022-10-11T12:15:10.328Z,11.27
2022-10-11T12:18:01.337Z,11.32
2022-10-11T12:20:31.691Z,11.37
2022-10-11T12:23:00.608Z,11.41
2022-10-11T12:25:28.703Z,11.38
2022-10-11T12:27:57.024Z,11.30
2022-10-11T12:30:42.590Z,11.23
2022-10-11T12:33:23.753Z,11.23
2022-10-11T12:35:53.632Z,11.22
2022-10-11T12:38:42.045Z,11.20
2022-10-11T12:41:09.146Z,11.12
2022-10-11T12:43:48.277Z,11.10
2022-10-11T12:46:31.271Z,11.04
2022-10-11T12:49:01.429Z,10.99
2022-10-11T12:51:48.638Z,10.97
2022-10-11T12:54:26.767Z,10.98
2022-10-11T12:56:54.270Z,10.95
2022-10-11T12:59:24.939Z,10.92
2022-10-11T13:01:54.327Z,10.93
2022-10-11T13:04:24.695Z,10.93
2022-10-11T13:07:07.706Z,10.94
2022-10-11T13:09:39.413Z,10.88
2022-10-11T13:12:08.522Z,10.86
2022-10-11T13:14:37.995Z,10.82
2022-10-11T13:17:28.060Z,10.78
2022-10-11T13:20:02.347Z,10.81
2022-10-11T13:22:34.931Z,10.85
2022-10-11T13:25:05.249Z,10.84
2022-10-11T13:27:32.574Z,10.82
2022-10-11T13:30:02.461Z,10.82
2022-10-11T13:32:31.459Z,10.85
2022-10-11T13:35:04.023Z,10.83
2022-10-11T13:37:38.751Z,10.80
2022-10-11T13:40:06.448Z,10.79
2022-10-11T13:42:33.753Z,10.78
2022-10-11T13:45:01.276Z,10.74
2022-10-11T13:47:30.969Z,10.69
2022-10-11T13:50:02.194Z,10.65
2022-10-11T13:52:30.632Z,10.63
2022-10-11T13:55:09.217Z,10.60
2022-10-11T13:57:41.038Z,9.90
2022-10-11T14:00:17.659Z,10.51
2022-10-11T14:02:50.117Z,10.44
2022-10-11T14:05:25.706Z,10.34
2022-10-11T14:07:52.768Z,10.28
2022-10-11T14:10:21.173Z,10.24
2022-10-11T14:13:05.796Z,10.19
2022-10-11T14:15:37.270Z,10.15
2022-10-11T14:18:33.872Z,10.11
2022-10-11T14:21:19.427Z,10.04
2022-10-11T14:23:47.014Z,9.99
2022-10-11T14:26:18.564Z,9.95
2022-10-11T14:28:49.575Z,9.73
2022-10-11T14:31:16.719Z,9.84
2022-10-11T14:33:43.735Z,9.80
2022-10-11T14:36:10.745Z,9.74
2022-10-11T14:38:37.690Z,9.65
2022-10-11T14:41:04.745Z,9.59
2022-10-11T14:43:31.681Z,9.52
2022-10-11T14:45:58.680Z,9.46
2022-10-11T14:48:53.853Z,9.38
2022-10-11T14:51:13.537Z,9.33
2022-10-11T14:53:46.249Z,9.25
2022-10-11T14:56:17.715Z,9.19
2022-10-11T14:58:47.388Z,9.16
2022-10-11T15:01:14.939Z,9.09
2022-10-11T15:03:42.381Z,9.00
2022-10-11T15:06:21.251Z,8.96
2022-10-11T15:08:48.264Z,8.90
2022-10-11T15:11:16.778Z,8.84
2022-10-11T15:13:43.963Z,8.80
2022-10-11T15:16:12.245Z,8.75
2022-10-11T15:18:39.598Z,8.70
2022-10-11T15:21:06.745Z,8.67
2022-10-11T15:23:33.814Z,8.63
2022-10-11T15:26:00.841Z,8.59
2022-10-11T15:28:29.923Z,8.56
2022-10-11T15:30:57.159Z,8.52
2022-10-11T15:33:24.929Z,8.46
2022-10-11T15:35:52.032Z,8.40
2022-10-11T15:38:20.408Z,8.37
2022-10-11T15:40:47.896Z,8.34
2022-10-11T15:43:15.402Z,8.30
2022-10-11T15:45:42.889Z,8.27
2022-10-11T15:48:19.164Z,8.21
2022-10-11T15:50:46.224Z,8.17
2022-10-11T15:53:14.522Z,8.13
2022-10-11T15:55:44.901Z,8.09
2022-10-11T15:58:16.153Z,8.05
2022-10-11T16:00:44.582Z,8.00
2022-10-11T16:03:15.192Z,7.94
2022-10-11T16:05:42.238Z,7.89
2022-10-11T16:08:09.979Z,7.86
2022-10-11T16:10:37.575Z,7.82
2022-10-11T16:13:04.862Z,7.76
2022-10-11T16:15:31.942Z,7.70
2022-10-11T16:17:59.024Z,7.65
2022-10-11T16:20:26.150Z,7.60
2022-10-11T16:22:54.382Z,7.60
2022-10-11T16:25:21.905Z,7.58
2022-10-11T16:27:49.169Z,7.55
2022-10-11T16:30:17.711Z,7.52
2022-10-11T16:32:45.630Z,7.49
2022-10-11T16:35:14.076Z,7.46
2022-10-11T16:37:41.002Z,7.42
2022-10-11T16:40:08.787Z,7.37
2022-10-11T16:42:36.158Z,7.35
2022-10-11T16:45:03.953Z,7.34
2022-10-11T16:47:31.669Z,7.34
2022-10-11T16:49:59.403Z,7.33
2022-10-11T16:52:26.394Z,7.30
2022-10-11T16:54:53.380Z,7.25
2022-10-11T16:57:20.457Z,7.24
2022-10-11T16:59:47.493Z,7.22
2022-10-11T17:02:16.104Z,7.21
2022-10-11T17:04:43.130Z,7.16
2022-10-11T17:07:13.085Z,7.14
2022-10-11T17:09:44.313Z,7.20
2022-10-11T17:12:13.259Z,7.24
2022-10-11T17:14:40.936Z,7.27
2022-10-11T17:17:09.096Z,7.32
2022-10-11T17:19:41.349Z,7.33
2022-10-11T17:22:12.132Z,7.29
2022-10-11T17:24:40.737Z,7.27
2022-10-11T17:27:07.980Z,7.24
2022-10-11T17:29:35.005Z,7.19
2022-10-11T17:32:02.081Z,7.19
2022-10-11T17:34:29.106Z,7.15
2022-10-11T17:36:56.145Z,7.14
2022-10-11T17:39:24.075Z,7.08
2022-10-11T17:41:51.086Z,7.03
2022-10-11T17:44:18.631Z,7.00
2022-10-11T17:46:46.313Z,6.98
2022-10-11T17:49:13.567Z,6.97
2022-10-11T17:51:40.946Z,6.92
2022-10-11T17:54:12.450Z,6.90
2022-10-11T17:56:40.502Z,6.86
2022-10-11T17:59:08.233Z,6.83
2022-10-11T18:01:36.027Z,6.83
2022-10-11T18:04:04.538Z,6.82
2022-10-11T18:06:33.101Z,6.79
2022-10-11T18:09:00.998Z,6.75
2022-10-11T18:11:28.652Z,6.72
2022-10-11T18:13:55.833Z,6.67
2022-10-11T18:16:24.752Z,6.64
2022-10-11T18:18:51.870Z,6.62
2022-10-11T18:21:19.667Z,6.60
2022-10-11T18:23:46.826Z,6.58
2022-10-11T18:26:28.018Z,6.58
2022-10-11T18:28:57.650Z,6.56
2022-10-11T18:31:26.029Z,6.52
2022-10-11T18:33:53.634Z,6.49
2022-10-11T18:36:23.341Z,6.46
2022-10-11T18:38:53.125Z,6.46
2022-10-11T18:41:20.824Z,6.44
2022-10-11T18:43:49.151Z,6.47
2022-10-11T18:46:16.197Z,6.51
2022-10-11T18:48:44.289Z,6.51
2022-10-11T18:51:16.017Z,6.48
2022-10-11T18:53:43.112Z,6.44
2022-10-11T18:56:11.132Z,6.39
2022-10-11T18:58:39.084Z,6.34
2022-10-11T19:01:10.411Z,6.29
2022-10-11T19:03:37.564Z,6.24
2022-10-11T19:06:17.802Z,6.18
2022-10-11T19:08:46.151Z,6.18
2022-10-11T19:11:14.427Z,6.15
2022-10-11T19:13:42.179Z,6.14
2022-10-11T19:16:10.801Z,6.10
2022-10-11T19:18:43.167Z,6.10
2022-10-11T19:21:12.723Z,6.07
2022-10-11T19:23:41.080Z,6.06
2022-10-11T19:26:09.490Z,6.01
2022-10-11T19:28:36.719Z,5.95
2022-10-11T19:31:08.654Z,5.88
2022-10-11T19:33:36.398Z,5.83
2022-10-11T19:36:04.775Z,5.80
2022-10-11T19:38:32.667Z,5.75
2022-10-11T19:41:04.315Z,5.70
2022-10-11T19:43:31.796Z,5.68
2022-10-11T19:46:02.880Z,5.66
2022-10-11T19:48:30.512Z,5.64
2022-10-11T19:51:06.687Z,5.61
2022-10-11T19:53:33.989Z,5.59
2022-10-11T19:56:05.136Z,5.59
2022-10-11T19:58:32.119Z,5.57
2022-10-11T20:01:08.299Z,5.56
2022-10-11T20:03:35.641Z,5.52
2022-10-11T20:06:03.689Z,5.49
2022-10-11T20:08:31.486Z,5.45
2022-10-11T20:10:59.601Z,5.41
2022-10-11T20:13:31.106Z,5.40
2022-10-11T20:16:04.633Z,5.38
2022-10-11T20:18:31.656Z,5.32
2022-10-11T20:21:00.147Z,5.28
2022-10-11T20:23:27.853Z,5.22
2022-10-11T20:26:18.073Z,5.19
2022-10-11T20:28:45.314Z,4.61
2022-10-11T20:31:12.338Z,5.15
2022-10-11T20:33:39.429Z,5.13
2022-10-11T20:36:10.862Z,5.14
2022-10-11T20:38:39.489Z,5.14
2022-10-11T20:41:11.029Z,5.15
2022-10-11T20:43:38.450Z,5.13
2022-10-11T20:46:07.463Z,5.11
2022-10-11T20:48:35.465Z,5.08
2022-10-11T20:51:02.840Z,5.05
2022-10-11T20:53:29.977Z,5.02
2022-10-11T20:55:57.161Z,5.01
2022-10-11T20:58:24.329Z,4.99
2022-10-11T21:00:51.532Z,4.97
2022-10-11T21:03:18.839Z,4.97
2022-10-11T21:05:45.857Z,4.93
2022-10-11T21:08:12.837Z,4.87
2022-10-11T21:10:39.903Z,4.86
2022-10-11T21:13:06.857Z,4.84
2022-10-11T21:15:33.942Z,4.80
2022-10-11T21:18:00.941Z,4.79
2022-10-11T21:20:28.145Z,4.79
2022-10-11T21:22:55.306Z,4.75
2022-10-11T21:25:22.280Z,4.74
2022-10-11T21:27:49.281Z,4.73
2022-10-11T21:30:16.761Z,4.70
2022-10-11T21:32:43.812Z,4.68
2022-10-11T21:35:10.821Z,4.65
2022-10-11T21:37:37.816Z,4.65
2022-10-11T21:40:05.065Z,4.65
2022-10-11T21:42:32.833Z,4.65
2022-10-11T21:45:00.078Z,4.66
2022-10-11T21:47:27.161Z,4.67
2022-10-11T21:49:54.174Z,4.68
2022-10-11T21:52:21.182Z,4.66
2022-10-11T21:54:48.181Z,4.60
2022-10-11T21:57:15.198Z,4.57
2022-10-11T21:59:42.164Z,4.53
2022-10-11T22:02:09.199Z,4.53
2022-10-11T22:04:36.434Z,4.55
2022-10-11T22:07:03.601Z,4.53
2022-10-11T22:09:35.038Z,4.51
2022-10-11T22:12:02.807Z,4.47
2022-10-11T22:14:30.088Z,4.48
2022-10-11T22:16:57.380Z,4.49
2022-10-11T22:19:24.499Z,4.48
2022-10-11T22:21:51.588Z,4.46
2022-10-11T22:24:18.588Z,4.42
2022-10-11T22:26:45.595Z,4.41
2022-10-11T22:29:12.558Z,4.43
2022-10-11T22:31:39.636Z,4.42
2022-10-11T22:34:06.741Z,3.70
2022-10-11T22:36:34.038Z,4.38
2022-10-11T22:39:01.262Z,4.37
2022-10-11T22:41:28.288Z,4.34
2022-10-11T22:43:55.330Z,4.31
2022-10-11T22:46:22.317Z,4.31
2022-10-11T22:48:49.382Z,4.33
2022-10-11T22:51:16.390Z,4.35
2022-10-11T22:53:43.525Z,4.37
2022-10-11T22:56:11.343Z,4.38
2022-10-11T22:58:38.330Z,4.35
2022-10-11T23:01:12.547Z,4.31
2022-10-11T23:03:40.066Z,4.27
2022-10-11T23:06:07.388Z,4.21
2022-10-11T23:08:34.443Z,4.17
2022-10-11T23:11:05.538Z,4.18
2022-10-11T23:13:32.631Z,4.23
2022-10-11T23:15:59.729Z,4.21
2022-10-11T23:18:26.771Z,4.23
2022-10-11T23:20:53.806Z,4.23
2022-10-11T23:23:20.824Z,4.22
2022-10-11T23:25:47.799Z,4.23
2022-10-11T23:28:14.865Z,4.24
2022-10-11T23:30:41.910Z,4.23
2022-10-11T23:33:09.056Z,4.21
2022-10-11T23:35:36.060Z,4.17
2022-10-11T23:38:03.000Z,4.16
2022-10-11T23:40:30.132Z,4.20
2022-10-11T23:42:57.213Z,4.20
2022-10-11T23:45:24.180Z,4.20
2022-10-11T23:47:51.232Z,4.19
2022-10-11T23:50:18.433Z,4.18
2022-10-11T23:52:45.553Z,4.15
2022-10-11T23:55:12.590Z,4.11
2022-10-11T23:57:39.973Z,4.09
